createdAt,value
2023-04-16T08:31:49.394Z,99758.53
2023-04-16T08:33:52.259Z,99758.53
2023-04-16T08:35:54.623Z,99652.47
2023-04-16T08:37:57.984Z,99605.59
2023-04-16T08:40:01.146Z,99573.16
2023-04-16T08:42:06.362Z,99546.09
2023-04-16T08:44:10.144Z,99571.84
2023-04-16T08:46:12.945Z,99586.41
2023-04-16T08:48:15.836Z,99587.78
2023-04-16T08:50:24.161Z,99593.06
2023-04-16T08:52:31.283Z,99617.88
2023-04-16T08:55:12.813Z,99664.78
2023-04-16T08:57:19.158Z,99694.44
2023-04-16T08:59:22.327Z,99693.81
2023-04-16T09:01:26.853Z,99703.56
2023-04-16T09:03:33.215Z,99714.47
2023-04-16T09:05:37.888Z,99770.38
2023-04-16T09:07:42.216Z,99814.88
2023-04-16T09:09:46.424Z,99827.19
2023-04-16T09:11:53.157Z,99861.34
2023-04-16T09:13:55.542Z,99883.38
2023-04-16T09:15:58.233Z,99897.53
2023-04-16T09:18:00.969Z,99937.41
2023-04-16T09:20:12.578Z,99999.94
2023-04-16T09:22:15.111Z,100013.31
2023-04-16T09:24:18.709Z,100028.13
2023-04-16T09:26:21.913Z,100008.81
2023-04-16T09:28:43.666Z,99990.53
2023-04-16T09:30:46.284Z,99972.75
2023-04-16T09:32:50.059Z,99998.38
2023-04-16T09:34:57.317Z,100003.84
2023-04-16T09:37:18.503Z,100007.78
2023-04-16T09:39:20.881Z,99998.59
2023-04-16T09:41:28.563Z,100014.16
2023-04-16T09:43:32.056Z,100002.44
2023-04-16T09:45:49.017Z,99998.59
2023-04-16T09:47:51.632Z,99996.22
2023-04-16T09:49:59.174Z,100018.03
2023-04-16T09:52:02.452Z,100013.97
2023-04-16T09:54:06.680Z,100008.66
2023-04-16T09:56:09.909Z,100010.00
2023-04-16T09:58:12.735Z,100008.16
2023-04-16T10:00:18.940Z,99990.84
2023-04-16T10:02:23.326Z,99977.87
2023-04-16T10:04:26.012Z,99990.22
2023-04-16T10:06:29.555Z,100049.38
2023-04-16T10:08:32.151Z,100042.28
2023-04-16T10:10:34.518Z,100032.06
2023-04-16T10:12:36.880Z,100023.56
2023-04-16T10:14:40.213Z,100009.75
2023-04-16T10:16:44.111Z,100066.59
2023-04-16T10:18:47.434Z,100055.97
2023-04-16T10:20:53.240Z,100063.13
2023-04-16T10:22:56.835Z,100097.25
2023-04-16T10:24:59.472Z,100116.75
2023-04-16T10:27:02.621Z,100175.13
2023-04-16T10:29:06.811Z,100223.81
2023-04-16T10:31:09.752Z,100217.88
2023-04-16T10:33:12.745Z,100188.72
2023-04-16T10:35:16.902Z,100147.56
2023-04-16T10:37:19.370Z,100165.00
2023-04-16T10:39:24.123Z,100179.66
2023-04-16T10:41:27.382Z,100213.87
2023-04-16T10:43:31.857Z,100205.41
2023-04-16T10:45:38.157Z,100228.25
2023-04-16T10:47:40.786Z,100194.72
2023-04-16T10:49:44.133Z,100170.78
2023-04-16T10:51:59.172Z,100173.41
2023-04-16T10:54:08.509Z,100247.75
2023-04-16T10:56:14.177Z,100243.31
2023-04-16T10:58:30.679Z,100263.25
2023-04-16T11:00:49.430Z,100276.59
2023-04-16T11:02:54.805Z,100271.66
2023-04-16T11:04:58.799Z,100265.47
2023-04-16T11:07:19.463Z,100294.69
2023-04-16T11:09:50.573Z,100315.66
2023-04-16T11:11:53.893Z,100297.63
2023-04-16T11:13:57.165Z,100305.28
2023-04-16T11:16:00.020Z,100285.34
2023-04-16T11:18:04.235Z,100279.66
2023-04-16T11:20:20.899Z,100320.75
2023-04-16T11:22:24.328Z,100345.28
2023-04-16T11:24:30.945Z,100341.81
2023-04-16T11:26:33.266Z,100339.81
2023-04-16T11:28:36.004Z,100320.16
2023-04-16T11:30:39.656Z,100342.53
2023-04-16T11:32:44.065Z,100343.91
2023-04-16T11:34:46.470Z,100343.31
2023-04-16T11:36:51.990Z,100353.62
2023-04-16T11:39:02.140Z,100355.31
2023-04-16T11:41:04.521Z,100376.13
2023-04-16T11:43:15.008Z,100351.84
2023-04-16T11:45:19.465Z,100325.53
2023-04-16T11:47:24.114Z,100330.97
2023-04-16T11:49:28.965Z,100298.44
2023-04-16T11:51:32.531Z,100304.94
2023-04-16T11:53:36.538Z,100318.44
2023-04-16T11:55:45.799Z,100311.69
2023-04-16T11:57:48.473Z,100304.87
2023-04-16T12:00:01.588Z,100328.72
2023-04-16T12:02:14.786Z,100343.03
2023-04-16T12:04:20.580Z,100362.47
2023-04-16T12:06:24.405Z,100361.31
2023-04-16T12:08:30.998Z,100360.09
2023-04-16T12:10:52.511Z,100359.44
2023-04-16T12:12:54.990Z,100357.28
2023-04-16T12:14:59.663Z,100344.50
2023-04-16T12:17:21.627Z,100354.09
2023-04-16T12:19:24.054Z,100350.19
2023-04-16T12:21:35.597Z,100354.19
2023-04-16T12:23:38.145Z,100354.59
2023-04-16T12:25:43.098Z,100368.44
2023-04-16T12:27:51.330Z,100364.97
2023-04-16T12:30:07.270Z,100353.44
2023-04-16T12:32:23.444Z,100347.19
2023-04-16T12:34:48.208Z,100356.09
2023-04-16T12:37:02.892Z,100342.59
2023-04-16T12:39:05.298Z,100340.69
2023-04-16T12:41:07.779Z,100342.03
2023-04-16T12:43:10.796Z,100342.03
2023-04-16T12:45:13.220Z,100340.84
2023-04-16T12:47:15.796Z,100330.59
2023-04-16T12:49:18.694Z,100322.72
2023-04-16T12:51:21.061Z,100320.31
2023-04-16T12:53:23.399Z,100321.56
2023-04-16T12:55:26.110Z,100310.53
2023-04-16T12:57:28.883Z,100310.38
2023-04-16T12:59:31.245Z,100318.41
2023-04-16T13:01:36.802Z,100323.50
2023-04-16T13:03:39.400Z,100327.91
2023-04-16T13:05:41.993Z,100347.56
2023-04-16T13:07:44.969Z,100355.56
2023-04-16T13:09:47.674Z,100340.56
2023-04-16T13:11:49.980Z,100341.63
2023-04-16T13:13:52.752Z,100329.22
2023-04-16T13:15:55.394Z,100328.06
2023-04-16T13:17:57.912Z,100321.41
2023-04-16T13:20:00.706Z,100323.12
2023-04-16T13:22:03.140Z,100298.72
2023-04-16T13:24:05.984Z,100309.94
2023-04-16T13:26:08.791Z,100300.41
2023-04-16T13:28:11.590Z,100295.00
2023-04-16T13:30:14.657Z,100294.41
2023-04-16T13:32:18.955Z,100295.94
2023-04-16T13:34:21.555Z,100285.34
2023-04-16T13:36:25.057Z,100271.53
2023-04-16T13:38:29.036Z,100272.09
2023-04-16T13:40:32.861Z,100270.25
2023-04-16T13:42:35.203Z,100265.50
2023-04-16T13:44:37.846Z,100252.66
2023-04-16T13:46:40.739Z,100259.69
2023-04-16T13:48:43.136Z,100257.78
2023-04-16T13:50:46.246Z,100259.31
2023-04-16T13:52:49.000Z,100248.00
2023-04-16T13:54:51.678Z,100246.50
2023-04-16T13:56:54.887Z,100247.91
2023-04-16T13:58:57.257Z,100239.12
2023-04-16T14:01:00.474Z,100247.34
2023-04-16T14:03:03.944Z,100246.91
2023-04-16T14:05:07.112Z,100241.34
2023-04-16T14:07:09.934Z,100236.53
2023-04-16T14:09:13.123Z,100237.41
2023-04-16T14:11:15.931Z,100250.91
2023-04-16T14:13:18.404Z,100245.75
2023-04-16T14:15:21.411Z,100252.72
2023-04-16T14:17:23.831Z,100249.84
2023-04-16T14:19:26.856Z,100250.66
2023-04-16T14:21:31.217Z,100237.25
2023-04-16T14:23:34.003Z,100242.19
2023-04-16T14:25:36.661Z,100249.25
2023-04-16T14:27:39.607Z,100234.22
2023-04-16T14:29:42.058Z,100236.81
2023-04-16T14:31:45.970Z,100224.97
2023-04-16T14:33:48.598Z,100219.03
2023-04-16T14:35:51.527Z,100223.09
2023-04-16T14:37:53.890Z,100224.19
2023-04-16T14:39:56.970Z,100219.78
2023-04-16T14:41:59.829Z,100225.03
2023-04-16T14:44:02.503Z,100227.28
2023-04-16T14:46:06.710Z,100231.62
2023-04-16T14:48:09.629Z,100233.97
2023-04-16T14:50:13.087Z,100233.63
2023-04-16T14:52:16.157Z,100240.06
2023-04-16T14:54:19.688Z,100250.00
2023-04-16T14:56:22.339Z,100246.84
2023-04-16T14:58:26.043Z,100246.31
2023-04-16T15:00:28.629Z,100251.72
2023-04-16T15:02:31.513Z,100245.38
2023-04-16T15:04:34.537Z,100244.88
2023-04-16T15:06:39.090Z,100246.63
2023-04-16T15:08:41.681Z,100249.50
2023-04-16T15:10:45.903Z,100239.34
2023-04-16T15:12:48.563Z,100237.78
2023-04-16T15:14:51.092Z,100248.03
2023-04-16T15:16:54.294Z,100250.16
2023-04-16T15:18:57.805Z,100243.06
2023-04-16T15:21:00.946Z,100242.56
2023-04-16T15:23:04.658Z,100246.31
2023-04-16T15:25:07.961Z,100250.41
2023-04-16T15:27:14.740Z,100240.06
2023-04-16T15:29:17.412Z,100241.44
2023-04-16T15:31:21.206Z,100244.44
2023-04-16T15:33:24.476Z,100243.06
2023-04-16T15:35:27.699Z,100243.22
2023-04-16T15:37:30.650Z,100239.84
2023-04-16T15:39:33.301Z,100238.94
2023-04-16T15:41:50.216Z,100232.63
2023-04-16T15:43:59.919Z,100241.09
2023-04-16T15:46:03.153Z,100253.09
2023-04-16T15:48:06.861Z,100251.19
2023-04-16T15:50:10.630Z,100255.19
2023-04-16T15:52:13.699Z,100241.38
2023-04-16T15:54:18.927Z,100246.22
2023-04-16T15:56:21.563Z,100239.78
2023-04-16T15:58:24.691Z,100244.75
2023-04-16T16:00:28.402Z,100247.22
2023-04-16T16:02:31.947Z,100237.16
2023-04-16T16:04:36.060Z,100233.81
2023-04-16T16:06:38.806Z,100228.47
2023-04-16T16:08:42.281Z,100237.75
2023-04-16T16:10:45.227Z,100226.94
2023-04-16T16:12:51.318Z,100227.91
2023-04-16T16:14:54.335Z,100226.97
2023-04-16T16:16:56.856Z,100228.13
2023-04-16T16:18:59.967Z,100235.59
2023-04-16T16:21:03.574Z,100227.66
2023-04-16T16:23:06.462Z,100225.53
2023-04-16T16:25:10.430Z,100223.47
2023-04-16T16:27:13.852Z,100220.69
2023-04-16T16:29:16.929Z,100221.88
2023-04-16T16:31:22.201Z,100226.44
2023-04-16T16:33:25.426Z,100222.38
2023-04-16T16:35:28.574Z,100216.28
2023-04-16T16:37:34.602Z,100222.41
2023-04-16T16:39:38.977Z,100210.19
2023-04-16T16:41:42.553Z,100212.44
2023-04-16T16:43:45.948Z,100210.88
2023-04-16T16:45:50.593Z,100212.34
2023-04-16T16:47:55.149Z,100211.13
2023-04-16T16:50:02.603Z,100209.75
2023-04-16T16:52:06.351Z,100211.97
2023-04-16T16:54:10.992Z,100199.97
2023-04-16T16:56:15.078Z,100206.69
2023-04-16T16:58:18.608Z,100210.88
2023-04-16T17:00:22.351Z,100212.09
2023-04-16T17:02:25.688Z,100210.31
2023-04-16T17:04:29.244Z,100201.91
2023-04-16T17:06:33.595Z,100210.31
2023-04-16T17:08:37.690Z,100212.34
2023-04-16T17:10:41.198Z,100212.91
2023-04-16T17:12:51.743Z,100214.38
2023-04-16T17:14:55.959Z,100209.00
2023-04-16T17:16:59.410Z,100207.44
2023-04-16T17:19:03.022Z,100213.69
2023-04-16T17:21:06.553Z,100208.84
2023-04-16T17:23:09.854Z,100211.13
2023-04-16T17:25:13.476Z,100204.44
2023-04-16T17:27:16.601Z,100208.12
2023-04-16T17:29:23.563Z,100202.97
2023-04-16T17:31:27.656Z,100205.59
2023-04-16T17:33:31.274Z,100199.63
2023-04-16T17:35:37.669Z,100202.50
2023-04-16T17:37:40.479Z,100190.47
2023-04-16T17:39:43.746Z,100181.59
2023-04-16T17:41:47.009Z,100183.37
2023-04-16T17:43:52.435Z,100180.25
2023-04-16T17:45:55.504Z,100179.09
2023-04-16T17:47:59.431Z,100173.53
2023-04-16T17:50:03.956Z,100180.47
2023-04-16T17:52:07.273Z,100181.19
2023-04-16T17:54:11.211Z,100179.87
2023-04-16T17:56:16.001Z,100180.75
2023-04-16T17:58:22.023Z,100167.53
2023-04-16T18:00:25.338Z,100176.03
2023-04-16T18:02:28.643Z,100181.00
2023-04-16T18:04:32.441Z,100185.06
2023-04-16T18:06:36.085Z,100181.09
2023-04-16T18:08:39.599Z,100187.16
2023-04-16T18:10:42.857Z,100168.31
2023-04-16T18:12:46.697Z,100172.00
2023-04-16T18:14:49.999Z,100170.72
2023-04-16T18:16:52.939Z,100160.16
2023-04-16T18:18:56.427Z,100158.97
2023-04-16T18:21:00.211Z,100159.03
2023-04-16T18:23:03.101Z,100148.06
2023-04-16T18:25:07.298Z,100147.00
2023-04-16T18:27:12.933Z,100137.38
2023-04-16T18:29:17.817Z,100127.22
2023-04-16T18:31:21.753Z,100116.34
2023-04-16T18:33:52.558Z,100113.91
2023-04-16T18:35:50.654Z,100099.91
2023-04-16T18:37:54.184Z,100086.16
2023-04-16T18:39:58.206Z,100078.38
2023-04-16T18:42:02.115Z,100081.94
2023-04-16T18:44:05.627Z,100080.00
2023-04-16T18:46:09.283Z,100075.97
2023-04-16T18:48:11.618Z,100077.03
2023-04-16T18:50:14.669Z,100074.16
2023-04-16T18:52:18.334Z,100077.31
2023-04-16T18:54:23.193Z,100086.38
2023-04-16T18:56:30.616Z,100071.25
2023-04-16T18:58:35.100Z,100070.72
2023-04-16T19:00:38.414Z,100082.78
2023-04-16T19:02:41.775Z,100081.34
2023-04-16T19:04:45.812Z,100078.09
2023-04-16T19:06:49.069Z,100078.22
2023-04-16T19:08:53.738Z,100079.03
2023-04-16T19:10:59.375Z,100086.09
2023-04-16T19:13:02.966Z,100085.25
2023-04-16T19:15:07.426Z,100095.06
2023-04-16T19:17:12.670Z,100101.31
2023-04-16T19:19:19.779Z,100110.03
2023-04-16T19:21:23.658Z,100112.66
2023-04-16T19:23:27.326Z,100106.56
2023-04-16T19:25:31.806Z,100076.97
2023-04-16T19:27:37.118Z,100082.22
2023-04-16T19:29:42.761Z,100084.50
2023-04-16T19:31:47.272Z,100094.56
2023-04-16T19:33:53.995Z,100103.75
2023-04-16T19:35:57.469Z,100098.94
2023-04-16T19:38:01.228Z,100107.53
2023-04-16T19:40:06.636Z,100111.13
2023-04-16T19:42:10.039Z,100102.28
2023-04-16T19:44:13.770Z,100101.66
2023-04-16T19:46:16.806Z,100088.34
2023-04-16T19:48:21.932Z,100092.75
2023-04-16T19:50:25.710Z,100096.75
2023-04-16T19:52:29.333Z,100102.69
2023-04-16T19:54:34.275Z,100100.56
2023-04-16T19:56:39.755Z,100100.06
2023-04-16T19:58:42.699Z,100103.28
2023-04-16T20:00:46.910Z,100105.59
2023-04-16T20:02:50.468Z,100111.06
2023-04-16T20:04:53.721Z,100103.19
2023-04-16T20:06:57.228Z,100122.41
2023-04-16T20:09:00.607Z,100113.06
2023-04-16T20:11:03.850Z,100119.03
2023-04-16T20:13:12.301Z,100122.41
2023-04-16T20:15:16.591Z,100125.66
2023-04-16T20:17:20.274Z,100125.81
2023-04-16T20:19:26.516Z,100124.63
2023-04-16T20:21:29.450Z,100122.84
2023-04-16T20:23:32.364Z,100133.13
2023-04-16T20:25:36.936Z,100136.19
2023-04-16T20:27:40.318Z,100140.16
2023-04-16T20:29:43.569Z,100139.22
2023-04-16T20:31:46.274Z,100140.78
2023-04-16T20:33:49.275Z,100146.38
2023-04-16T20:35:52.320Z,100147.00
2023-04-16T20:37:55.076Z,100150.38
2023-04-16T20:39:57.868Z,100153.63
2023-04-16T20:42:00.936Z,100148.81
2023-04-16T20:44:05.646Z,100146.81
2023-04-16T20:46:09.491Z,100146.91
2023-04-16T20:48:12.939Z,100146.38
2023-04-16T20:50:16.018Z,100136.19
2023-04-16T20:52:18.932Z,100132.44
2023-04-16T20:54:21.535Z,100131.69
2023-04-16T20:56:23.899Z,100131.34
2023-04-16T20:58:27.465Z,100139.75
2023-04-16T21:00:30.015Z,100140.19
2023-04-16T21:02:32.772Z,100133.69
2023-04-16T21:04:35.584Z,100137.16
2023-04-16T21:06:38.705Z,100130.00
2023-04-16T21:08:41.209Z,100136.53
2023-04-16T21:10:45.220Z,100135.06
2023-04-16T21:12:47.553Z,100137.78
2023-04-16T21:14:49.840Z,100137.38
2023-04-16T21:16:52.568Z,100132.13
2023-04-16T21:18:55.642Z,100139.66
2023-04-16T21:20:59.047Z,100142.94
2023-04-16T21:23:02.772Z,100143.66
2023-04-16T21:25:05.775Z,100134.00
2023-04-16T21:27:08.142Z,100128.75
2023-04-16T21:29:11.112Z,100121.00
2023-04-16T21:31:13.648Z,100117.75
2023-04-16T21:33:16.716Z,100117.69
2023-04-16T21:35:19.477Z,100112.25
2023-04-16T21:37:21.845Z,100109.00
2023-04-16T21:39:27.533Z,100111.53
2023-04-16T21:41:30.160Z,100115.75
2023-04-16T21:43:32.677Z,100120.25
2023-04-16T21:45:35.273Z,100123.56
2023-04-16T21:47:38.303Z,100098.19
2023-04-16T21:49:42.391Z,100091.78
2023-04-16T21:51:46.140Z,100075.84
2023-04-16T21:53:48.859Z,100080.03
2023-04-16T21:55:51.191Z,100070.78
2023-04-16T21:57:53.532Z,100064.50
2023-04-16T21:59:56.319Z,100052.12
2023-04-16T22:01:58.684Z,100055.59
2023-04-16T22:04:02.162Z,100058.94
2023-04-16T22:06:05.346Z,100059.59
2023-04-16T22:08:23.246Z,100067.63
2023-04-16T22:10:27.327Z,100069.72
2023-04-16T22:12:30.609Z,100075.50
2023-04-16T22:14:37.048Z,100074.37
2023-04-16T22:16:40.270Z,100079.72
